Mount Vernon, South Dakota
Current Conditions -  °F | °C
As of 5:53 AM on Sunday 23 Nov 2014 (Local Time) from KMHE Reporting Station
Broken Clouds Broken Clouds  
Wind Chill: 31°   Ceiling: 3600
Heat Index: 39°   Visibility: 10mi
Dew Point: 35°   Wind: 13mph
Humidity: 86%   Direction: 310°NW
Pressure: 29.51"   Gusts: NA
Location:  43.71°N, 98.26°W
Report Text: KMHE 231153Z AUTO 31011KT 10SM BKN036 04/02 A2951 RMK AO2 SLP000 T00390017 10056 20000 53035 $
Loading
Personal Weather Stations






























Interactive Weather Map New forecast layout! Learn more

10-Day Weather Forecast

Advertisements
Track Severe Weather on mobile